Stations météo

réclame
Mon MeteoGroup
Melle, Belgique (6434): Température de l'air & dewpoint: 10.11.2018 00:00:00 - 16.11.2018 00:00:00 (CET)Melle, Belgique (6434): Vitesse du vent & gusts: 10.11.2018 00:00:00 - 16.11.2018 00:00:00 (CET)Melle, Belgique (6434): Direction du vent: 10.11.2018 00:00:00 - 16.11.2018 00:00:00 (CET)Melle, Belgique (6434): reduced air pressure: 10.11.2018 00:00:00 - 16.11.2018 00:00:00 (CET)Melle, Belgique (6434): Ensoleillement: 10.11.2018 00:00:00 - 16.11.2018 00:00:00 (CET)Melle, Belgique (6434): Quantités de précipitations: 10.11.2018 00:00:00 - 16.11.2018 00:00:00 (CET)
Date & Time tt [°C] td [°C] ff [km/h] ff [knt] fx [km/h] fx [knt] dd ppp [hPa] sd [min] rr [mm]
16.11.2018 00:00:00 7,1 7,1 8 4 19 11 S 1025,0 0 0,0
15.11.2018 23:00:00 7,9 7,9 11 6 17 9 SSW 1025,0 0 0,0
15.11.2018 22:00:00 8,2 8,2 11 6 16 9 S 1024,7 0 0,0
15.11.2018 21:00:00 8,2 8,2 10 5 16 8 S 1024,5 0 0,0
15.11.2018 20:00:00 8,0 8,0 10 5 18 10 SSW 1024,4 0 0,0
15.11.2018 19:00:00 6,7 6,7 4 2 7 4 WSW 1023,9 0 0,0
15.11.2018 18:00:00 8,8 8,1 5 3 8 4 WSW 1023,7 0 0,0
15.11.2018 17:00:00 11,4 9,3 5 3 9 5 W 1023,4 46 0,0
15.11.2018 16:00:00 14,0 10,0 5 3 10 6 S 1023,4 60 0,0
15.11.2018 15:00:00 14,0 10,2 6 3 15 8 S 1023,5 60 0,0
15.11.2018 14:00:00 13,7 9,8 8 4 18 10 S 1023,7 60 0,0
15.11.2018 13:00:00 12,7 9,0 14 8 18 10 SSW 1023,9 60 0,0
15.11.2018 12:00:00 11,7 8,5 10 5 18 10 S 1024,1 60 0,0
15.11.2018 11:00:00 10,6 7,5 8 4 20 11 SSE 1024,5 60 0,0
15.11.2018 10:00:00 9,3 7,0 6 3 9 5 SE 1024,5 60 0,0
15.11.2018 09:00:00 6,0 5,3 4 2 11 6 E 1024,5 27 0,0
15.11.2018 08:00:00 6,2 5,6 7 4 11 6 SE 1024,1 0 0,0
15.11.2018 07:00:00 5,6 5,2 7 4 10 6 SE 1024,2 0 0,0
15.11.2018 06:00:00 3,6 3,3 4 2 7 4 E 1024,2 0 0,0
15.11.2018 05:00:00 6,0 5,5 5 3 8 5 ESE 1024,1 0 0,0
15.11.2018 04:00:00 5,8 5,4 5 3 7 4 ESE 1024,0 0 0,0
15.11.2018 03:00:00 4,0 3,9 4 2 7 4 NE 1024,2 0 0,0
15.11.2018 02:00:00 4,7 3,8 4 2 7 4 SE 1024,2 0 0,0
15.11.2018 01:00:00 7,6 5,2 4 2 7 4 ESE 1024,5 0 0,0
15.11.2018 00:00:00 5,1 4,2 0 0 6 4 N 1024,7 0 0,0
14.11.2018 23:00:00 6,1 4,6 4 2 9 5 E 1024,6 0 0,0
14.11.2018 22:00:00 6,3 5,2 6 3 10 6 ESE 1024,6 0 0,0
14.11.2018 21:00:00 7,6 5,9 8 4 11 6 ESE 1024,7 0 0,0
14.11.2018 20:00:00 8,4 6,3 7 4 11 6 ESE 1024,9 0 0,0
14.11.2018 19:00:00 9,3 6,8 11 6 13 7 SE 1025,1 0 0,0
14.11.2018 18:00:00 10,4 7,6 8 5 12 6 SE 1025,1 0 0,0
14.11.2018 17:00:00 12,0 8,3 8 4 19 10 SE 1025,2 50 0,0
14.11.2018 16:00:00 12,8 8,7 10 5 22 12 SSE 1025,7 60 0,0
14.11.2018 15:00:00 13,3 8,8 12 7 22 12 S 1026,0 60 0,0
14.11.2018 14:00:00 13,2 8,7 14 8 25 14 S 1026,4 60 0,0
14.11.2018 13:00:00 12,3 8,8 14 8 24 13 S 1026,8 60 0,0
14.11.2018 12:00:00 11,1 8,5 14 7 21 12 S 1027,4 60 0,0
14.11.2018 11:00:00 10,1 8,0 15 8 23 12 SSW 1027,9 60 0,0
14.11.2018 10:00:00 8,6 7,2 10 5 19 11 S 1027,8 60 0,0
14.11.2018 09:00:00 7,1 6,4 15 8 22 12 S 1027,7 26 0,0
14.11.2018 08:00:00 6,4 5,9 8 5 19 10 SSW 1027,7 0 0,0
14.11.2018 07:00:00 7,2 6,6 11 6 24 13 S 1027,4 0 0,0
14.11.2018 06:00:00 7,2 6,5 13 7 22 12 S 1027,2 0 0,0
14.11.2018 05:00:00 7,3 6,4 11 6 18 10 S 1027,6 - -
14.11.2018 04:00:00 7,4 6,5 11 6 - - SSW 1028,4 - -
14.11.2018 03:00:00 7,9 6,9 10 5 17 9 S 1028,8 0 0,0
14.11.2018 02:00:00 8,1 7,1 11 6 16 9 SSW 1029,0 0 0,0
14.11.2018 01:00:00 7,8 6,8 7 4 16 8 SSW 1029,1 0 0,0
14.11.2018 00:00:00 8,5 7,3 10 5 15 8 SSW 1029,0 0 0,0
13.11.2018 23:00:00 8,9 7,5 11 6 16 9 SSW 1028,9 0 0,0
13.11.2018 22:00:00 10,0 7,7 13 7 21 12 SSW 1028,9 0 0,0
13.11.2018 21:00:00 10,9 8,8 11 6 18 10 SW 1028,5 0 0,0
13.11.2018 20:00:00 10,2 8,6 10 5 20 11 SW 1028,1 0 0,0
13.11.2018 19:00:00 10,1 8,2 11 6 19 10 SW 1027,8 0 0,0
13.11.2018 18:00:00 10,5 8,2 8 4 18 10 SW 1027,4 0 0,0
13.11.2018 17:00:00 11,6 8,6 13 7 35 19 SW 1026,8 33 0,0
13.11.2018 16:00:00 12,8 8,7 21 11 38 21 WSW 1026,1 49 0,0
13.11.2018 15:00:00 13,2 8,4 23 12 41 22 WSW 1025,4 60 0,0
13.11.2018 14:00:00 13,1 9,0 21 11 44 24 WSW 1024,9 59 0,0
13.11.2018 13:00:00 12,6 9,0 22 12 41 22 WSW 1024,4 59 0,0
13.11.2018 12:00:00 11,8 8,9 25 14 40 21 SW 1023,9 56 0,0
13.11.2018 11:00:00 11,2 8,9 25 13 39 21 SW 1023,3 30 0,0
13.11.2018 10:00:00 10,3 8,6 21 11 39 21 SW 1022,5 0 0,0
13.11.2018 09:00:00 10,3 8,8 26 14 39 21 WSW 1021,9 0 0,0
13.11.2018 08:00:00 10,3 8,7 21 11 37 20 SW 1020,8 0 0,0
13.11.2018 07:00:00 10,3 8,8 22 12 34 18 SW 1020,2 0 0,0
13.11.2018 06:00:00 9,7 8,7 19 10 40 22 SW 1019,4 0 0,0
13.11.2018 05:00:00 10,1 8,9 24 13 40 22 SW 1018,9 0 0,0
13.11.2018 04:00:00 10,0 8,8 21 11 31 17 SSW 1018,6 0 0,0
13.11.2018 03:00:00 10,0 8,9 20 11 29 16 SSW 1018,6 0 0,0
13.11.2018 02:00:00 9,7 8,7 15 8 24 13 SSW 1018,4 0 0,0
13.11.2018 01:00:00 9,6 8,6 14 8 23 12 S 1017,9 0 0,0
13.11.2018 00:00:00 9,5 8,5 13 7 20 11 S 1017,8 0 0,0
12.11.2018 23:00:00 9,4 8,4 10 6 22 12 S 1017,8 0 0,0
12.11.2018 22:00:00 9,4 8,5 10 6 18 10 S 1017,7 0 0,0
12.11.2018 21:00:00 9,5 8,6 11 6 19 10 S 1017,6 0 0,0
12.11.2018 20:00:00 9,4 8,5 13 7 21 11 S 1017,2 0 0,0
12.11.2018 19:00:00 9,1 8,3 11 6 22 12 SSW 1016,8 0 0,0
12.11.2018 18:00:00 9,5 8,7 13 7 17 9 S 1016,1 0 0,0
12.11.2018 17:00:00 10,2 9,2 11 6 18 10 S 1015,4 - -
12.11.2018 16:00:00 11,1 9,9 11 6 20 11 SW 1015,3 0 0,0
12.11.2018 15:00:00 11,4 10,2 10 5 18 10 SW 1014,5 9 0,0
12.11.2018 14:00:00 11,0 10,0 10 5 16 8 WSW 1013,8 1 0,0
12.11.2018 13:00:00 10,9 10,1 7 4 13 7 SSW 1013,3 0 0,3
12.11.2018 12:00:00 10,5 10,2 9 5 13 7 WSW 1013,8 0 0,4
12.11.2018 11:00:00 10,6 10,6 5 3 8 4 W 1013,0 0 0,9
12.11.2018 10:00:00 10,5 10,5 4 2 4 2 SE 1012,0 0 0,7
12.11.2018 09:00:00 10,2 10,2 4 2 4 2 SSW 1012,1 0 1,7
12.11.2018 08:00:00 10,2 10,2 0 0 9 5 N 1011,7 0 1,9
12.11.2018 07:00:00 10,4 10,4 7 4 11 6 SSE 1011,4 0 2,2
12.11.2018 06:00:00 10,4 10,3 6 3 9 5 SSE 1011,3 0 1,4
12.11.2018 05:00:00 10,5 10,3 5 3 15 8 S 1011,1 0 1,4
12.11.2018 04:00:00 10,8 10,2 11 6 19 11 S 1011,3 0 0,3
12.11.2018 03:00:00 10,8 10,1 13 7 20 11 SSE 1011,2 0 0,0
12.11.2018 02:00:00 10,7 10,0 11 6 18 10 S 1010,6 0 0,0
12.11.2018 01:00:00 10,7 10,1 11 6 20 11 S 1010,9 0 0,0
12.11.2018 00:00:00 10,9 10,1 12 7 20 11 S 1010,9 0 0,0
11.11.2018 23:00:00 10,7 10,1 13 7 20 11 S 1010,6 0 0,0
11.11.2018 22:00:00 10,2 9,6 10 5 20 11 SSW 1010,1 0 0,0
11.11.2018 21:00:00 10,2 9,5 10 5 18 10 SSW 1009,3 0 0,0
11.11.2018 20:00:00 10,6 9,6 11 6 23 12 SW 1008,5 0 0,0
11.11.2018 19:00:00 10,8 9,7 11 6 26 14 SW 1007,7 0 0,0
11.11.2018 18:00:00 11,2 9,5 14 8 30 16 SW 1006,8 0 0,0
11.11.2018 17:00:00 11,8 9,9 14 8 36 19 SSW 1006,3 - -
11.11.2018 16:00:00 12,3 9,9 24 13 39 21 SSW 1006,2 9 0,0
11.11.2018 15:00:00 12,6 10,0 26 14 41 22 SSW 1004,8 5 0,0
11.11.2018 14:00:00 12,4 10,4 26 14 41 22 SSW 1005,0 1 0,3
11.11.2018 13:00:00 12,6 10,0 22 12 - - SSW 1004,9 - -
11.11.2018 12:00:00 12,8 10,0 26 14 43 23 SSW 1004,5 0 0,0
11.11.2018 11:00:00 12,7 9,7 30 16 51 28 SSW 1003,9 0 0,0
11.11.2018 10:00:00 12,5 9,6 29 16 48 26 SSW 1003,0 4 0,0
11.11.2018 09:00:00 11,8 9,3 27 15 45 24 SSW 1002,5 0 0,0
11.11.2018 08:00:00 11,6 9,6 26 14 44 24 SSW 1001,4 0 0,0
11.11.2018 07:00:00 11,5 10,0 22 12 38 21 SSW 1001,2 0 0,2
11.11.2018 06:00:00 11,6 10,0 21 12 49 27 SW 1001,0 0 0,2
11.11.2018 05:00:00 11,3 10,1 18 10 40 21 SSW 1000,7 - -
11.11.2018 04:00:00 11,2 10,0 16 9 - - S 1000,8 0 0,6
11.11.2018 03:00:00 11,7 10,2 29 15 48 26 SSW 1001,1 0 0,2
11.11.2018 02:00:00 11,8 9,9 24 13 37 20 S 1000,9 0 0,0
11.11.2018 01:00:00 11,7 9,9 22 12 36 20 S 1000,8 0 0,0
11.11.2018 00:00:00 11,7 10,1 19 10 31 17 S 1001,0 0 0,0
10.11.2018 23:00:00 11,0 10,0 16 9 29 16 S 1001,1 0 0,0
10.11.2018 22:00:00 10,7 9,8 17 9 29 16 S 1001,3 0 0,0
10.11.2018 21:00:00 10,2 9,4 12 7 25 14 S 1001,2 0 0,0
10.11.2018 20:00:00 10,7 9,4 19 10 27 14 S 1001,0 0 0,0
10.11.2018 19:00:00 11,0 9,9 14 8 21 11 S 1000,8 0 0,0
10.11.2018 18:00:00 11,1 10,1 12 6 24 13 S 1000,6 0 0,0
10.11.2018 17:00:00 11,9 10,8 14 8 25 14 SSW 1000,2 - -
10.11.2018 16:00:00 11,9 11,2 14 8 28 15 SSW 1000,0 0 0,0
10.11.2018 15:00:00 11,7 11,2 14 8 27 15 S 1000,1 0 1,0
10.11.2018 14:00:00 11,7 11,2 15 8 29 15 S 1000,6 0 1,8
10.11.2018 13:00:00 12,2 11,1 22 12 33 18 S 1000,8 0 0,2
10.11.2018 12:00:00 12,5 10,7 18 10 37 20 S 1001,1 0 0,0
10.11.2018 11:00:00 12,7 10,6 21 11 35 19 SSW 1001,4 0 0,0
10.11.2018 10:00:00 12,5 10,4 25 14 43 23 SSW 1000,9 0 0,0
10.11.2018 09:00:00 12,2 10,4 26 14 42 23 SSW 1000,6 0 0,0
10.11.2018 08:00:00 11,8 10,3 27 15 46 25 SSW 1000,0 0 0,0
10.11.2018 07:00:00 11,3 10,3 29 16 - - SSW 999,5 - -
10.11.2018 06:00:00 11,0 10,2 29 16 50 27 S 999,5 0 1,0
10.11.2018 05:00:00 11,6 9,4 32 18 50 27 S 999,4 - -
10.11.2018 04:00:00 12,0 9,1 24 13 44 24 S 999,5 0 0,4
10.11.2018 03:00:00 12,6 9,2 19 10 46 25 S 1000,7 0 0,0
10.11.2018 02:00:00 12,6 9,1 23 12 38 20 S 1001,4 0 0,0
10.11.2018 01:00:00 12,4 9,4 22 12 39 21 S 1002,9 0 0,0
10.11.2018 00:00:00 12,1 9,5 19 10 36 19 S 1003,8 0 0,0

tt = Température de l'air
td = dewpoint
ff = Vitesse du vent
fx = gusts
dd = Direction du vent
ppp = reduced air pressure
sd = Ensoleillement
rr = Quantités de précipitations

stations d'obs. à proximité